sensor_id;sensor_type;location;lat;lon;timestamp;P1;durP1;ratioP1;P2;durP2;ratioP2
5847;SDS011;8756;49.29324300;8.70599800;2023-04-06T00:01:40;21.17;;;11.50;;
5847;SDS011;8756;49.29324300;8.70599800;2023-04-06T00:04:06;20.80;;;11.83;;
5847;SDS011;8756;49.29324300;8.70599800;2023-04-06T00:06:32;18.17;;;10.17;;
5847;SDS011;8756;49.29324300;8.70599800;2023-04-06T00:08:58;20.53;;;11.23;;
5847;SDS011;8756;49.29324300;8.70599800;2023-04-06T00:11:25;19.40;;;11.40;;
5847;SDS011;8756;49.29324300;8.70599800;2023-04-06T00:13:51;19.10;;;12.07;;
5847;SDS011;8756;49.29324300;8.70599800;2023-04-06T00:16:18;20.80;;;11.67;;
5847;SDS011;8756;49.29324300;8.70599800;2023-04-06T00:18:44;19.10;;;11.10;;
5847;SDS011;8756;49.29324300;8.70599800;2023-04-06T00:21:11;20.13;;;12.20;;
5847;SDS011;8756;49.29324300;8.70599800;2023-04-06T00:23:38;17.73;;;11.00;;
5847;SDS011;8756;49.29324300;8.70599800;2023-04-06T00:26:04;18.20;;;10.60;;
5847;SDS011;8756;49.29324300;8.70599800;2023-04-06T00:28:30;18.33;;;10.43;;
5847;SDS011;8756;49.29324300;8.70599800;2023-04-06T00:30:55;19.23;;;10.20;;
5847;SDS011;8756;49.29324300;8.70599800;2023-04-06T00:33:21;18.70;;;10.50;;
5847;SDS011;8756;49.29324300;8.70599800;2023-04-06T00:35:48;19.17;;;10.40;;
5847;SDS011;8756;49.29324300;8.70599800;2023-04-06T00:38:14;19.00;;;10.97;;
5847;SDS011;8756;49.29324300;8.70599800;2023-04-06T00:40:40;22.60;;;12.17;;
5847;SDS011;8756;49.29324300;8.70599800;2023-04-06T00:43:07;22.30;;;12.10;;
5847;SDS011;8756;49.29324300;8.70599800;2023-04-06T00:45:35;18.60;;;10.30;;
5847;SDS011;8756;49.29324300;8.70599800;2023-04-06T00:48:01;17.87;;;11.43;;
5847;SDS011;8756;49.29324300;8.70599800;2023-04-06T00:50:27;17.40;;;11.50;;
5847;SDS011;8756;49.29324300;8.70599800;2023-04-06T00:52:53;20.53;;;11.83;;
5847;SDS011;8756;49.29324300;8.70599800;2023-04-06T00:55:20;19.70;;;11.37;;
5847;SDS011;8756;49.29324300;8.70599800;2023-04-06T00:57:46;18.17;;;10.70;;
5847;SDS011;8756;49.29324300;8.70599800;2023-04-06T01:00:12;18.07;;;12.13;;
5847;SDS011;8756;49.29324300;8.70599800;2023-04-06T01:02:45;17.90;;;11.10;;
5847;SDS011;8756;49.29324300;8.70599800;2023-04-06T01:05:11;19.13;;;12.50;;
5847;SDS011;8756;49.29324300;8.70599800;2023-04-06T01:07:37;17.80;;;11.60;;
5847;SDS011;8756;49.29324300;8.70599800;2023-04-06T01:10:02;18.27;;;11.00;;
5847;SDS011;8756;49.29324300;8.70599800;2023-04-06T01:12:29;18.70;;;11.40;;
5847;SDS011;8756;49.29324300;8.70599800;2023-04-06T01:14:55;17.17;;;10.33;;
5847;SDS011;8756;49.29324300;8.70599800;2023-04-06T01:17:21;21.73;;;10.80;;
5847;SDS011;8756;49.29324300;8.70599800;2023-04-06T01:19:46;21.33;;;10.73;;
5847;SDS011;8756;49.29324300;8.70599800;2023-04-06T01:22:17;18.80;;;10.10;;
5847;SDS011;8756;49.29324300;8.70599800;2023-04-06T01:24:43;20.27;;;9.90;;
5847;SDS011;8756;49.29324300;8.70599800;2023-04-06T01:27:09;18.07;;;10.13;;
5847;SDS011;8756;49.29324300;8.70599800;2023-04-06T01:29:35;19.13;;;10.97;;
5847;SDS011;8756;49.29324300;8.70599800;2023-04-06T01:32:01;19.10;;;11.03;;
5847;SDS011;8756;49.29324300;8.70599800;2023-04-06T01:34:27;24.23;;;10.87;;
5847;SDS011;8756;49.29324300;8.70599800;2023-04-06T01:36:53;22.23;;;11.60;;
5847;SDS011;8756;49.29324300;8.70599800;2023-04-06T01:39:18;18.43;;;9.80;;
5847;SDS011;8756;49.29324300;8.70599800;2023-04-06T01:41:45;18.73;;;11.47;;
5847;SDS011;8756;49.29324300;8.70599800;2023-04-06T01:44:12;18.50;;;11.30;;
5847;SDS011;8756;49.29324300;8.70599800;2023-04-06T01:46:41;17.40;;;10.50;;
5847;SDS011;8756;49.29324300;8.70599800;2023-04-06T01:49:06;17.83;;;10.67;;
5847;SDS011;8756;49.29324300;8.70599800;2023-04-06T01:51:32;18.20;;;11.00;;
5847;SDS011;8756;49.29324300;8.70599800;2023-04-06T01:53:58;16.73;;;9.30;;
5847;SDS011;8756;49.29324300;8.70599800;2023-04-06T01:56:23;20.07;;;11.57;;
5847;SDS011;8756;49.29324300;8.70599800;2023-04-06T01:58:49;17.13;;;11.03;;
5847;SDS011;8756;49.29324300;8.70599800;2023-04-06T02:01:18;18.20;;;9.60;;
5847;SDS011;8756;49.29324300;8.70599800;2023-04-06T02:03:43;20.03;;;10.37;;
5847;SDS011;8756;49.29324300;8.70599800;2023-04-06T02:06:09;19.03;;;10.57;;
5847;SDS011;8756;49.29324300;8.70599800;2023-04-06T02:08:35;20.33;;;11.47;;
5847;SDS011;8756;49.29324300;8.70599800;2023-04-06T02:11:00;17.33;;;11.17;;
5847;SDS011;8756;49.29324300;8.70599800;2023-04-06T02:13:26;19.40;;;10.90;;
5847;SDS011;8756;49.29324300;8.70599800;2023-04-06T02:15:52;16.40;;;9.83;;
5847;SDS011;8756;49.29324300;8.70599800;2023-04-06T02:18:17;17.43;;;10.43;;
5847;SDS011;8756;49.29324300;8.70599800;2023-04-06T02:20:43;16.37;;;10.03;;
5847;SDS011;8756;49.29324300;8.70599800;2023-04-06T02:23:09;18.23;;;10.00;;
5847;SDS011;8756;49.29324300;8.70599800;2023-04-06T02:25:36;17.37;;;10.33;;
5847;SDS011;8756;49.29324300;8.70599800;2023-04-06T02:28:01;16.50;;;10.33;;
5847;SDS011;8756;49.29324300;8.70599800;2023-04-06T02:30:27;19.10;;;9.67;;
5847;SDS011;8756;49.29324300;8.70599800;2023-04-06T02:32:54;19.13;;;11.13;;
5847;SDS011;8756;49.29324300;8.70599800;2023-04-06T02:35:19;17.00;;;9.77;;
5847;SDS011;8756;49.29324300;8.70599800;2023-04-06T02:37:45;18.80;;;11.23;;
5847;SDS011;8756;49.29324300;8.70599800;2023-04-06T02:40:10;18.20;;;10.63;;
5847;SDS011;8756;49.29324300;8.70599800;2023-04-06T02:42:36;18.10;;;10.97;;
5847;SDS011;8756;49.29324300;8.70599800;2023-04-06T02:45:02;17.07;;;10.07;;
5847;SDS011;8756;49.29324300;8.70599800;2023-04-06T02:47:28;15.77;;;9.50;;
5847;SDS011;8756;49.29324300;8.70599800;2023-04-06T02:49:54;18.90;;;10.20;;
5847;SDS011;8756;49.29324300;8.70599800;2023-04-06T02:52:20;16.30;;;9.47;;
5847;SDS011;8756;49.29324300;8.70599800;2023-04-06T02:54:45;17.50;;;10.43;;
5847;SDS011;8756;49.29324300;8.70599800;2023-04-06T02:57:11;18.10;;;10.80;;
5847;SDS011;8756;49.29324300;8.70599800;2023-04-06T02:59:36;15.33;;;9.70;;
5847;SDS011;8756;49.29324300;8.70599800;2023-04-06T03:02:02;17.77;;;10.17;;
5847;SDS011;8756;49.29324300;8.70599800;2023-04-06T03:04:28;17.40;;;10.03;;
5847;SDS011;8756;49.29324300;8.70599800;2023-04-06T03:06:54;19.40;;;11.53;;
5847;SDS011;8756;49.29324300;8.70599800;2023-04-06T03:09:20;17.30;;;10.37;;
5847;SDS011;8756;49.29324300;8.70599800;2023-04-06T03:11:46;18.80;;;9.70;;
5847;SDS011;8756;49.29324300;8.70599800;2023-04-06T03:14:12;17.30;;;11.33;;
5847;SDS011;8756;49.29324300;8.70599800;2023-04-06T03:16:37;18.67;;;11.43;;
5847;SDS011;8756;49.29324300;8.70599800;2023-04-06T03:19:03;18.07;;;11.27;;
5847;SDS011;8756;49.29324300;8.70599800;2023-04-06T03:21:28;18.23;;;10.10;;
5847;SDS011;8756;49.29324300;8.70599800;2023-04-06T03:23:54;19.73;;;11.80;;
5847;SDS011;8756;49.29324300;8.70599800;2023-04-06T03:26:20;20.60;;;11.20;;
5847;SDS011;8756;49.29324300;8.70599800;2023-04-06T03:28:47;19.03;;;10.80;;
5847;SDS011;8756;49.29324300;8.70599800;2023-04-06T03:31:12;17.53;;;10.63;;
5847;SDS011;8756;49.29324300;8.70599800;2023-04-06T03:33:38;18.67;;;10.07;;
5847;SDS011;8756;49.29324300;8.70599800;2023-04-06T03:36:04;18.67;;;11.20;;
5847;SDS011;8756;49.29324300;8.70599800;2023-04-06T03:38:30;21.13;;;10.30;;
5847;SDS011;8756;49.29324300;8.70599800;2023-04-06T03:40:56;21.27;;;11.50;;
5847;SDS011;8756;49.29324300;8.70599800;2023-04-06T03:43:21;18.63;;;10.33;;
5847;SDS011;8756;49.29324300;8.70599800;2023-04-06T03:45:47;17.20;;;10.53;;
5847;SDS011;8756;49.29324300;8.70599800;2023-04-06T03:48:13;17.33;;;10.77;;
5847;SDS011;8756;49.29324300;8.70599800;2023-04-06T03:50:38;17.37;;;9.93;;
5847;SDS011;8756;49.29324300;8.70599800;2023-04-06T03:53:04;16.80;;;10.43;;
5847;SDS011;8756;49.29324300;8.70599800;2023-04-06T03:55:30;19.93;;;11.80;;
5847;SDS011;8756;49.29324300;8.70599800;2023-04-06T03:57:55;18.83;;;11.50;;
5847;SDS011;8756;49.29324300;8.70599800;2023-04-06T04:00:21;17.73;;;11.43;;
5847;SDS011;8756;49.29324300;8.70599800;2023-04-06T04:02:47;17.93;;;10.53;;
5847;SDS011;8756;49.29324300;8.70599800;2023-04-06T04:05:13;20.73;;;11.80;;
5847;SDS011;8756;49.29324300;8.70599800;2023-04-06T04:07:38;17.57;;;11.63;;
5847;SDS011;8756;49.29324300;8.70599800;2023-04-06T04:10:04;19.07;;;11.87;;
5847;SDS011;8756;49.29324300;8.70599800;2023-04-06T04:12:30;19.63;;;11.70;;
5847;SDS011;8756;49.29324300;8.70599800;2023-04-06T04:14:56;17.27;;;11.10;;
5847;SDS011;8756;49.29324300;8.70599800;2023-04-06T04:17:21;18.10;;;10.93;;
5847;SDS011;8756;49.29324300;8.70599800;2023-04-06T04:19:47;21.07;;;11.60;;
5847;SDS011;8756;49.29324300;8.70599800;2023-04-06T04:22:13;19.83;;;10.83;;
5847;SDS011;8756;49.29324300;8.70599800;2023-04-06T04:24:38;20.27;;;12.30;;
5847;SDS011;8756;49.29324300;8.70599800;2023-04-06T04:27:04;16.83;;;11.13;;
5847;SDS011;8756;49.29324300;8.70599800;2023-04-06T04:29:30;21.20;;;12.33;;
5847;SDS011;8756;49.29324300;8.70599800;2023-04-06T04:31:55;19.53;;;11.63;;
5847;SDS011;8756;49.29324300;8.70599800;2023-04-06T04:34:21;19.13;;;11.90;;
5847;SDS011;8756;49.29324300;8.70599800;2023-04-06T04:36:50;18.13;;;11.30;;
5847;SDS011;8756;49.29324300;8.70599800;2023-04-06T04:39:16;19.40;;;12.50;;
5847;SDS011;8756;49.29324300;8.70599800;2023-04-06T04:41:42;17.53;;;12.40;;
5847;SDS011;8756;49.29324300;8.70599800;2023-04-06T04:44:08;20.87;;;10.60;;
5847;SDS011;8756;49.29324300;8.70599800;2023-04-06T04:46:33;18.40;;;12.20;;
5847;SDS011;8756;49.29324300;8.70599800;2023-04-06T04:48:59;20.10;;;12.17;;
5847;SDS011;8756;49.29324300;8.70599800;2023-04-06T04:51:28;17.40;;;10.30;;
5847;SDS011;8756;49.29324300;8.70599800;2023-04-06T04:53:53;21.10;;;12.20;;
5847;SDS011;8756;49.29324300;8.70599800;2023-04-06T04:56:19;17.50;;;10.23;;
5847;SDS011;8756;49.29324300;8.70599800;2023-04-06T04:58:45;19.47;;;10.33;;
5847;SDS011;8756;49.29324300;8.70599800;2023-04-06T05:01:10;17.57;;;11.00;;
5847;SDS011;8756;49.29324300;8.70599800;2023-04-06T05:03:36;21.70;;;12.10;;
5847;SDS011;8756;49.29324300;8.70599800;2023-04-06T05:06:03;17.83;;;11.20;;
5847;SDS011;8756;49.29324300;8.70599800;2023-04-06T05:08:30;18.40;;;10.73;;
5847;SDS011;8756;49.29324300;8.70599800;2023-04-06T05:10:56;17.37;;;11.37;;
5847;SDS011;8756;49.29324300;8.70599800;2023-04-06T05:13:21;21.00;;;12.63;;
5847;SDS011;8756;49.29324300;8.70599800;2023-04-06T05:15:47;16.70;;;11.60;;
5847;SDS011;8756;49.29324300;8.70599800;2023-04-06T05:18:13;21.60;;;12.03;;
5847;SDS011;8756;49.29324300;8.70599800;2023-04-06T05:20:39;17.87;;;11.17;;
5847;SDS011;8756;49.29324300;8.70599800;2023-04-06T05:23:05;19.43;;;11.17;;
5847;SDS011;8756;49.29324300;8.70599800;2023-04-06T05:25:31;18.90;;;11.23;;
5847;SDS011;8756;49.29324300;8.70599800;2023-04-06T05:27:57;20.00;;;12.00;;
5847;SDS011;8756;49.29324300;8.70599800;2023-04-06T05:30:23;17.77;;;11.33;;
5847;SDS011;8756;49.29324300;8.70599800;2023-04-06T05:32:52;17.20;;;11.30;;
5847;SDS011;8756;49.29324300;8.70599800;2023-04-06T05:35:18;19.23;;;12.20;;
5847;SDS011;8756;49.29324300;8.70599800;2023-04-06T05:37:43;18.27;;;10.43;;
5847;SDS011;8756;49.29324300;8.70599800;2023-04-06T05:40:09;21.40;;;11.60;;
5847;SDS011;8756;49.29324300;8.70599800;2023-04-06T05:42:38;22.90;;;11.93;;
5847;SDS011;8756;49.29324300;8.70599800;2023-04-06T05:45:08;20.60;;;10.27;;
5847;SDS011;8756;49.29324300;8.70599800;2023-04-06T05:47:44;20.10;;;12.17;;
5847;SDS011;8756;49.29324300;8.70599800;2023-04-06T05:50:10;18.67;;;11.80;;
5847;SDS011;8756;49.29324300;8.70599800;2023-04-06T05:52:37;18.90;;;11.63;;
5847;SDS011;8756;49.29324300;8.70599800;2023-04-06T05:55:03;21.87;;;11.97;;
5847;SDS011;8756;49.29324300;8.70599800;2023-04-06T05:57:29;20.30;;;11.47;;
5847;SDS011;8756;49.29324300;8.70599800;2023-04-06T05:59:55;20.50;;;10.97;;
5847;SDS011;8756;49.29324300;8.70599800;2023-04-06T06:02:21;19.67;;;11.97;;
5847;SDS011;8756;49.29324300;8.70599800;2023-04-06T06:04:47;19.77;;;11.40;;
5847;SDS011;8756;49.29324300;8.70599800;2023-04-06T06:07:13;20.70;;;12.70;;
5847;SDS011;8756;49.29324300;8.70599800;2023-04-06T06:09:39;18.10;;;12.13;;
5847;SDS011;8756;49.29324300;8.70599800;2023-04-06T06:12:05;18.60;;;11.87;;
5847;SDS011;8756;49.29324300;8.70599800;2023-04-06T06:14:31;23.23;;;12.50;;
5847;SDS011;8756;49.29324300;8.70599800;2023-04-06T06:16:56;19.10;;;11.77;;
5847;SDS011;8756;49.29324300;8.70599800;2023-04-06T06:19:22;19.97;;;13.20;;
5847;SDS011;8756;49.29324300;8.70599800;2023-04-06T06:21:48;20.13;;;11.90;;
5847;SDS011;8756;49.29324300;8.70599800;2023-04-06T06:24:14;18.47;;;12.20;;
5847;SDS011;8756;49.29324300;8.70599800;2023-04-06T06:26:39;23.97;;;14.30;;
5847;SDS011;8756;49.29324300;8.70599800;2023-04-06T06:29:06;21.60;;;12.00;;
5847;SDS011;8756;49.29324300;8.70599800;2023-04-06T06:31:32;19.90;;;12.70;;
5847;SDS011;8756;49.29324300;8.70599800;2023-04-06T06:33:58;19.13;;;11.03;;
5847;SDS011;8756;49.29324300;8.70599800;2023-04-06T06:36:24;21.17;;;13.40;;
5847;SDS011;8756;49.29324300;8.70599800;2023-04-06T06:38:50;18.20;;;12.10;;
5847;SDS011;8756;49.29324300;8.70599800;2023-04-06T06:41:16;20.27;;;12.07;;
5847;SDS011;8756;49.29324300;8.70599800;2023-04-06T06:43:42;19.60;;;11.90;;
5847;SDS011;8756;49.29324300;8.70599800;2023-04-06T06:46:07;22.53;;;12.90;;
5847;SDS011;8756;49.29324300;8.70599800;2023-04-06T06:48:33;20.90;;;13.87;;
5847;SDS011;8756;49.29324300;8.70599800;2023-04-06T06:50:59;27.60;;;13.30;;
5847;SDS011;8756;49.29324300;8.70599800;2023-04-06T06:53:25;24.10;;;12.53;;
5847;SDS011;8756;49.29324300;8.70599800;2023-04-06T06:55:50;20.47;;;13.30;;
5847;SDS011;8756;49.29324300;8.70599800;2023-04-06T06:58:18;20.97;;;12.87;;
5847;SDS011;8756;49.29324300;8.70599800;2023-04-06T07:00:47;23.03;;;13.93;;
5847;SDS011;8756;49.29324300;8.70599800;2023-04-06T07:03:13;23.37;;;14.40;;
5847;SDS011;8756;49.29324300;8.70599800;2023-04-06T07:05:39;24.40;;;15.30;;
5847;SDS011;8756;49.29324300;8.70599800;2023-04-06T07:08:14;22.23;;;15.00;;
5847;SDS011;8756;49.29324300;8.70599800;2023-04-06T07:10:40;24.20;;;16.30;;
5847;SDS011;8756;49.29324300;8.70599800;2023-04-06T07:13:05;23.13;;;14.13;;
5847;SDS011;8756;49.29324300;8.70599800;2023-04-06T07:15:31;24.17;;;14.80;;
5847;SDS011;8756;49.29324300;8.70599800;2023-04-06T07:17:56;24.77;;;13.87;;
5847;SDS011;8756;49.29324300;8.70599800;2023-04-06T07:20:22;24.67;;;14.37;;
5847;SDS011;8756;49.29324300;8.70599800;2023-04-06T07:22:48;25.10;;;15.00;;
5847;SDS011;8756;49.29324300;8.70599800;2023-04-06T07:25:13;21.27;;;12.63;;
5847;SDS011;8756;49.29324300;8.70599800;2023-04-06T07:27:39;21.87;;;13.73;;
5847;SDS011;8756;49.29324300;8.70599800;2023-04-06T07:30:05;23.43;;;15.10;;
5847;SDS011;8756;49.29324300;8.70599800;2023-04-06T07:32:32;29.43;;;14.60;;
5847;SDS011;8756;49.29324300;8.70599800;2023-04-06T07:34:59;24.40;;;15.87;;
5847;SDS011;8756;49.29324300;8.70599800;2023-04-06T07:37:25;22.17;;;13.00;;
5847;SDS011;8756;49.29324300;8.70599800;2023-04-06T07:39:50;23.30;;;13.47;;
5847;SDS011;8756;49.29324300;8.70599800;2023-04-06T07:42:16;23.47;;;14.10;;
5847;SDS011;8756;49.29324300;8.70599800;2023-04-06T07:44:42;28.43;;;14.13;;
5847;SDS011;8756;49.29324300;8.70599800;2023-04-06T07:47:07;24.70;;;14.40;;
5847;SDS011;8756;49.29324300;8.70599800;2023-04-06T07:49:33;22.90;;;14.40;;
5847;SDS011;8756;49.29324300;8.70599800;2023-04-06T07:51:58;30.13;;;12.77;;
5847;SDS011;8756;49.29324300;8.70599800;2023-04-06T07:54:25;23.07;;;13.03;;
5847;SDS011;8756;49.29324300;8.70599800;2023-04-06T07:56:51;26.63;;;14.80;;
5847;SDS011;8756;49.29324300;8.70599800;2023-04-06T07:59:16;26.07;;;13.77;;
5847;SDS011;8756;49.29324300;8.70599800;2023-04-06T08:01:42;24.70;;;13.90;;
5847;SDS011;8756;49.29324300;8.70599800;2023-04-06T08:04:07;24.50;;;13.87;;
5847;SDS011;8756;49.29324300;8.70599800;2023-04-06T08:06:33;22.53;;;12.00;;
5847;SDS011;8756;49.29324300;8.70599800;2023-04-06T08:08:59;19.90;;;12.10;;
5847;SDS011;8756;49.29324300;8.70599800;2023-04-06T08:11:25;20.27;;;12.40;;
5847;SDS011;8756;49.29324300;8.70599800;2023-04-06T08:13:51;20.07;;;12.40;;
5847;SDS011;8756;49.29324300;8.70599800;2023-04-06T08:16:17;22.07;;;12.57;;
5847;SDS011;8756;49.29324300;8.70599800;2023-04-06T08:18:43;19.10;;;12.00;;
5847;SDS011;8756;49.29324300;8.70599800;2023-04-06T08:21:09;21.57;;;11.97;;
5847;SDS011;8756;49.29324300;8.70599800;2023-04-06T08:23:35;23.03;;;11.50;;
5847;SDS011;8756;49.29324300;8.70599800;2023-04-06T08:26:01;24.97;;;13.57;;
5847;SDS011;8756;49.29324300;8.70599800;2023-04-06T08:28:27;22.43;;;12.80;;
5847;SDS011;8756;49.29324300;8.70599800;2023-04-06T08:30:52;20.03;;;12.50;;
5847;SDS011;8756;49.29324300;8.70599800;2023-04-06T08:33:18;20.37;;;12.00;;
5847;SDS011;8756;49.29324300;8.70599800;2023-04-06T08:35:44;21.93;;;11.20;;
5847;SDS011;8756;49.29324300;8.70599800;2023-04-06T08:38:10;24.30;;;13.80;;
5847;SDS011;8756;49.29324300;8.70599800;2023-04-06T08:40:38;20.80;;;12.33;;
5847;SDS011;8756;49.29324300;8.70599800;2023-04-06T08:43:06;22.03;;;13.17;;
5847;SDS011;8756;49.29324300;8.70599800;2023-04-06T08:45:40;21.60;;;13.60;;
5847;SDS011;8756;49.29324300;8.70599800;2023-04-06T08:48:06;21.97;;;12.40;;
5847;SDS011;8756;49.29324300;8.70599800;2023-04-06T08:50:34;21.57;;;13.37;;
5847;SDS011;8756;49.29324300;8.70599800;2023-04-06T08:53:00;22.37;;;13.00;;
5847;SDS011;8756;49.29324300;8.70599800;2023-04-06T08:55:27;24.43;;;15.10;;
5847;SDS011;8756;49.29324300;8.70599800;2023-04-06T08:57:53;21.47;;;13.07;;
5847;SDS011;8756;49.29324300;8.70599800;2023-04-06T09:00:20;24.13;;;13.10;;
5847;SDS011;8756;49.29324300;8.70599800;2023-04-06T09:02:49;21.37;;;12.97;;
5847;SDS011;8756;49.29324300;8.70599800;2023-04-06T09:05:20;21.13;;;12.40;;
5847;SDS011;8756;49.29324300;8.70599800;2023-04-06T09:07:46;21.50;;;13.93;;
5847;SDS011;8756;49.29324300;8.70599800;2023-04-06T09:10:15;21.70;;;11.87;;
5847;SDS011;8756;49.29324300;8.70599800;2023-04-06T09:12:42;21.80;;;12.37;;
5847;SDS011;8756;49.29324300;8.70599800;2023-04-06T09:15:17;25.53;;;12.70;;
5847;SDS011;8756;49.29324300;8.70599800;2023-04-06T09:17:46;20.77;;;12.87;;
5847;SDS011;8756;49.29324300;8.70599800;2023-04-06T09:20:12;21.73;;;13.20;;
5847;SDS011;8756;49.29324300;8.70599800;2023-04-06T09:22:38;25.00;;;13.73;;
5847;SDS011;8756;49.29324300;8.70599800;2023-04-06T09:25:05;20.13;;;12.87;;
5847;SDS011;8756;49.29324300;8.70599800;2023-04-06T09:27:34;22.23;;;14.37;;
5847;SDS011;8756;49.29324300;8.70599800;2023-04-06T09:32:43;20.40;;;11.77;;
5847;SDS011;8756;49.29324300;8.70599800;2023-04-06T09:35:13;22.70;;;12.40;;
5847;SDS011;8756;49.29324300;8.70599800;2023-04-06T09:37:40;21.67;;;13.90;;
5847;SDS011;8756;49.29324300;8.70599800;2023-04-06T09:40:07;20.63;;;12.30;;
5847;SDS011;8756;49.29324300;8.70599800;2023-04-06T09:42:34;21.10;;;11.80;;
5847;SDS011;8756;49.29324300;8.70599800;2023-04-06T09:45:03;21.70;;;11.70;;
5847;SDS011;8756;49.29324300;8.70599800;2023-04-06T09:47:32;20.67;;;11.13;;
5847;SDS011;8756;49.29324300;8.70599800;2023-04-06T09:50:01;22.00;;;11.33;;
5847;SDS011;8756;49.29324300;8.70599800;2023-04-06T09:52:32;23.33;;;11.77;;
5847;SDS011;8756;49.29324300;8.70599800;2023-04-06T09:55:03;21.13;;;9.40;;
5847;SDS011;8756;49.29324300;8.70599800;2023-04-06T09:58:04;18.20;;;10.00;;
5847;SDS011;8756;49.29324300;8.70599800;2023-04-06T10:00:32;19.67;;;10.93;;
5847;SDS011;8756;49.29324300;8.70599800;2023-04-06T10:03:14;22.57;;;11.20;;
5847;SDS011;8756;49.29324300;8.70599800;2023-04-06T10:06:04;16.63;;;9.97;;
5847;SDS011;8756;49.29324300;8.70599800;2023-04-06T10:08:36;21.10;;;9.60;;
5847;SDS011;8756;49.29324300;8.70599800;2023-04-06T10:11:06;19.40;;;9.90;;
5847;SDS011;8756;49.29324300;8.70599800;2023-04-06T10:13:33;19.47;;;9.47;;
5847;SDS011;8756;49.29324300;8.70599800;2023-04-06T10:16:00;17.40;;;9.17;;
5847;SDS011;8756;49.29324300;8.70599800;2023-04-06T10:18:26;17.70;;;10.30;;
5847;SDS011;8756;49.29324300;8.70599800;2023-04-06T10:20:57;19.30;;;9.50;;
5847;SDS011;8756;49.29324300;8.70599800;2023-04-06T10:23:44;20.37;;;10.13;;
5847;SDS011;8756;49.29324300;8.70599800;2023-04-06T10:26:14;17.50;;;9.13;;
5847;SDS011;8756;49.29324300;8.70599800;2023-04-06T10:28:43;18.00;;;9.10;;
5847;SDS011;8756;49.29324300;8.70599800;2023-04-06T10:31:10;17.53;;;8.87;;
5847;SDS011;8756;49.29324300;8.70599800;2023-04-06T10:33:36;21.30;;;9.30;;
5847;SDS011;8756;49.29324300;8.70599800;2023-04-06T10:36:11;21.17;;;10.67;;
5847;SDS011;8756;49.29324300;8.70599800;2023-04-06T10:38:52;20.30;;;9.70;;
5847;SDS011;8756;49.29324300;8.70599800;2023-04-06T10:41:23;18.43;;;9.20;;
5847;SDS011;8756;49.29324300;8.70599800;2023-04-06T10:43:57;17.73;;;9.50;;
5847;SDS011;8756;49.29324300;8.70599800;2023-04-06T10:46:24;18.73;;;9.07;;
5847;SDS011;8756;49.29324300;8.70599800;2023-04-06T10:48:52;19.00;;;8.80;;
5847;SDS011;8756;49.29324300;8.70599800;2023-04-06T10:51:18;17.97;;;7.83;;
5847;SDS011;8756;49.29324300;8.70599800;2023-04-06T10:53:46;16.87;;;8.13;;
5847;SDS011;8756;49.29324300;8.70599800;2023-04-06T10:56:14;14.43;;;7.00;;
5847;SDS011;8756;49.29324300;8.70599800;2023-04-06T10:58:45;15.07;;;7.67;;
5847;SDS011;8756;49.29324300;8.70599800;2023-04-06T11:01:14;16.07;;;6.73;;
5847;SDS011;8756;49.29324300;8.70599800;2023-04-06T11:03:45;14.63;;;6.97;;
5847;SDS011;8756;49.29324300;8.70599800;2023-04-06T11:06:19;14.33;;;6.80;;
5847;SDS011;8756;49.29324300;8.70599800;2023-04-06T11:08:50;17.80;;;8.13;;
5847;SDS011;8756;49.29324300;8.70599800;2023-04-06T11:11:17;25.03;;;10.40;;
5847;SDS011;8756;49.29324300;8.70599800;2023-04-06T11:13:49;17.47;;;8.00;;
5847;SDS011;8756;49.29324300;8.70599800;2023-04-06T11:16:20;15.30;;;7.33;;
5847;SDS011;8756;49.29324300;8.70599800;2023-04-06T11:18:53;19.10;;;9.37;;
5847;SDS011;8756;49.29324300;8.70599800;2023-04-06T11:21:42;18.93;;;9.00;;
5847;SDS011;8756;49.29324300;8.70599800;2023-04-06T11:24:18;22.97;;;10.50;;
5847;SDS011;8756;49.29324300;8.70599800;2023-04-06T11:26:46;19.63;;;10.60;;
5847;SDS011;8756;49.29324300;8.70599800;2023-04-06T11:29:16;18.77;;;9.10;;
5847;SDS011;8756;49.29324300;8.70599800;2023-04-06T11:31:49;21.23;;;9.10;;
5847;SDS011;8756;49.29324300;8.70599800;2023-04-06T11:34:23;17.90;;;8.33;;
5847;SDS011;8756;49.29324300;8.70599800;2023-04-06T11:37:00;20.93;;;9.03;;
5847;SDS011;8756;49.29324300;8.70599800;2023-04-06T11:39:30;16.87;;;8.53;;
5847;SDS011;8756;49.29324300;8.70599800;2023-04-06T11:41:58;16.70;;;9.37;;
5847;SDS011;8756;49.29324300;8.70599800;2023-04-06T11:44:32;16.67;;;8.53;;
5847;SDS011;8756;49.29324300;8.70599800;2023-04-06T11:47:00;18.83;;;9.37;;
5847;SDS011;8756;49.29324300;8.70599800;2023-04-06T11:49:36;18.20;;;9.07;;
5847;SDS011;8756;49.29324300;8.70599800;2023-04-06T11:52:13;21.17;;;9.13;;
5847;SDS011;8756;49.29324300;8.70599800;2023-04-06T11:54:44;18.57;;;10.33;;
5847;SDS011;8756;49.29324300;8.70599800;2023-04-06T11:57:11;21.93;;;9.50;;
5847;SDS011;8756;49.29324300;8.70599800;2023-04-06T11:59:37;18.63;;;9.37;;
5847;SDS011;8756;49.29324300;8.70599800;2023-04-06T12:02:02;17.80;;;10.30;;
5847;SDS011;8756;49.29324300;8.70599800;2023-04-06T12:04:29;19.73;;;9.20;;
5847;SDS011;8756;49.29324300;8.70599800;2023-04-06T12:06:55;20.10;;;9.43;;
5847;SDS011;8756;49.29324300;8.70599800;2023-04-06T12:09:21;19.30;;;9.90;;
5847;SDS011;8756;49.29324300;8.70599800;2023-04-06T12:11:47;18.30;;;8.87;;
5847;SDS011;8756;49.29324300;8.70599800;2023-04-06T12:14:13;19.40;;;9.60;;
5847;SDS011;8756;49.29324300;8.70599800;2023-04-06T12:16:39;18.77;;;9.70;;
5847;SDS011;8756;49.29324300;8.70599800;2023-04-06T12:19:05;21.00;;;9.17;;
5847;SDS011;8756;49.29324300;8.70599800;2023-04-06T12:21:31;17.70;;;9.03;;
5847;SDS011;8756;49.29324300;8.70599800;2023-04-06T12:24:00;19.80;;;8.93;;
5847;SDS011;8756;49.29324300;8.70599800;2023-04-06T12:26:26;22.83;;;9.17;;
5847;SDS011;8756;49.29324300;8.70599800;2023-04-06T12:28:52;21.97;;;9.47;;
5847;SDS011;8756;49.29324300;8.70599800;2023-04-06T12:31:19;18.13;;;8.80;;
5847;SDS011;8756;49.29324300;8.70599800;2023-04-06T12:33:46;18.33;;;8.20;;
5847;SDS011;8756;49.29324300;8.70599800;2023-04-06T12:36:17;17.37;;;8.97;;
5847;SDS011;8756;49.29324300;8.70599800;2023-04-06T12:38:45;16.90;;;8.87;;
5847;SDS011;8756;49.29324300;8.70599800;2023-04-06T12:41:13;16.67;;;8.80;;
5847;SDS011;8756;49.29324300;8.70599800;2023-04-06T12:43:43;18.50;;;9.17;;
5847;SDS011;8756;49.29324300;8.70599800;2023-04-06T12:46:09;18.23;;;9.10;;
5847;SDS011;8756;49.29324300;8.70599800;2023-04-06T12:48:35;17.60;;;8.50;;
5847;SDS011;8756;49.29324300;8.70599800;2023-04-06T12:51:02;17.70;;;8.60;;
5847;SDS011;8756;49.29324300;8.70599800;2023-04-06T12:53:30;16.97;;;8.10;;
5847;SDS011;8756;49.29324300;8.70599800;2023-04-06T12:55:57;17.07;;;7.80;;